Time;durP1;ratioP1;P1;durP2;ratioP2;P2;SDS_P1;SDS_P2;PMS_P1;PMS_P2;Temp;Humidity;BMP_temperature;BMP_pressure;BME280_temperature;BME280_humidity;BME280_pressure;Samples;Min_cycle;Max_cycle;Signal;HPM_P1;HPM_P2
2022/02/05 00:02:06;;;;;;;6.68;1.10;;;3.90;99.90;;;;;;5034983;28;20037;-91
2022/02/05 00:04:33;;;;;;;9.07;1.38;;;3.90;99.90;;;;;;5015976;28;20496;-91
2022/02/05 00:06:59;;;;;;;6.45;0.90;;;3.90;99.90;;;;;;5014321;28;20034;-91
2022/02/05 00:41:32;;;;;;;10.75;1.08;;;4.30;99.90;;;;;;5034209;28;20025;-92
2022/02/05 00:44:00;;;;;;;10.02;1.13;;;4.20;99.90;;;;;;5015528;28;20044;-91
2022/02/05 00:46:30;;;;;;;6.60;0.60;;;4.20;99.90;;;;;;5010711;28;20390;-92
2022/02/05 00:48:56;;;;;;;7.10;0.70;;;4.10;99.90;;;;;;5016024;28;20120;-91
2022/02/05 00:51:36;;;;;;;7.32;0.55;;;4.10;99.90;;;;;;5013719;28;20116;-92
2022/02/05 00:54:13;;;;;;;6.45;0.70;;;4.00;99.90;;;;;;5016084;28;20021;-91
2022/02/05 00:56:51;;;;;;;15.07;1.08;;;3.90;99.90;;;;;;5014295;28;20025;-91
2022/02/05 00:59:19;;;;;;;8.40;0.70;;;3.90;99.90;;;;;;5030448;28;20096;-90
2022/02/05 01:01:45;;;;;;;7.00;0.57;;;3.90;99.90;;;;;;5015267;28;20065;-91
2022/02/05 01:04:11;;;;;;;6.65;0.60;;;3.80;99.90;;;;;;5014053;28;20166;-92
2022/02/05 01:06:39;;;;;;;5.47;0.65;;;3.80;99.90;;;;;;5015945;28;20040;-91
2022/02/05 01:09:11;;;;;;;8.90;0.80;;;3.80;99.90;;;;;;5025293;28;20025;-90
2022/02/05 01:11:37;;;;;;;9.45;0.57;;;3.80;99.90;;;;;;5012397;28;20030;-91
2022/02/05 01:14:05;;;;;;;8.77;0.60;;;3.70;99.90;;;;;;5033246;28;20163;-91
2022/02/05 01:21:56;;;;;;;6.65;0.60;;;3.70;99.90;;;;;;5028063;28;20045;-91
2022/02/05 01:24:23;;;;;;;7.32;0.60;;;3.70;99.90;;;;;;5014080;28;20060;-90
2022/02/05 01:26:56;;;;;;;9.60;1.20;;;3.70;99.90;;;;;;5020328;28;20037;-90
2022/02/05 01:31:55;;;;;;;5.95;0.85;;;3.70;99.90;;;;;;5033152;28;20033;-90
2022/02/05 01:53:26;;;;;;;7.22;0.60;;;3.80;99.90;;;;;;5032428;28;20021;-90
2022/02/05 02:11:44;;;;;;;10.88;0.57;;;3.70;99.90;;;;;;5032511;28;20048;-91
2022/02/05 02:20:04;;;;;;;12.13;0.60;;;3.80;99.90;;;;;;5031718;28;20558;-91
2022/02/05 02:22:47;;;;;;;16.08;0.70;;;3.80;99.90;;;;;;5027110;28;20030;-91
2022/02/05 02:27:51;;;;;;;11.82;0.85;;;3.90;99.90;;;;;;5032000;28;20104;-90
2022/02/05 02:30:21;;;;;;;6.20;0.90;;;3.90;99.90;;;;;;5031348;28;20060;-91
2022/02/05 02:32:52;;;;;;;6.63;0.70;;;3.90;99.90;;;;;;5008944;28;20486;-90
2022/02/05 02:35:23;;;;;;;10.82;0.98;;;3.90;99.90;;;;;;5014131;28;20033;-90
2022/02/05 02:37:57;;;;;;;11.15;1.08;;;4.00;99.90;;;;;;5030903;28;20025;-91
2022/02/05 02:40:39;;;;;;;5.47;0.50;;;4.00;99.90;;;;;;5012299;28;20440;-90
2022/02/05 02:43:11;;;;;;;10.43;0.57;;;4.00;99.90;;;;;;5013819;28;20489;-90
2022/02/05 02:45:36;;;;;;;12.55;1.10;;;4.00;99.90;;;;;;5013282;28;20037;-90
2022/02/05 02:48:02;;;;;;;8.40;0.90;;;4.00;99.90;;;;;;5031441;28;20041;-91
2022/02/05 02:56:26;;;;;;;8.88;0.60;;;4.00;99.90;;;;;;5031123;28;20029;-91
2022/02/05 02:58:50;;;;;;;6.82;0.75;;;4.10;99.90;;;;;;5024632;28;20070;-91
2022/02/05 03:01:20;;;;;;;7.35;0.60;;;4.10;99.90;;;;;;5030924;28;20045;-91
2022/02/05 03:03:47;;;;;;;6.63;0.55;;;4.10;99.90;;;;;;5029753;28;20061;-89
2022/02/05 03:06:13;;;;;;;9.50;0.68;;;4.10;99.90;;;;;;5010126;28;20033;-91
2022/02/05 03:08:39;;;;;;;11.85;0.50;;;4.10;99.90;;;;;;5029239;28;20401;-90
2022/02/05 03:11:05;;;;;;;9.32;1.83;;;4.10;99.90;;;;;;5013711;28;20064;-92
2022/02/05 03:13:31;;;;;;;12.63;0.70;;;4.10;99.90;;;;;;5031895;28;20030;-90
2022/02/05 03:15:56;;;;;;;9.68;0.68;;;4.00;99.90;;;;;;5035407;28;20110;-91
2022/02/05 03:18:32;;;;;;;9.75;0.93;;;4.00;99.90;;;;;;5033637;28;20036;-91
2022/02/05 03:20:57;;;;;;;11.77;0.70;;;4.00;99.90;;;;;;5015142;28;20057;-90
2022/02/05 03:23:23;;;;;;;8.63;0.65;;;4.00;99.90;;;;;;5012730;28;20065;-90
2022/02/05 03:25:48;;;;;;;11.65;0.98;;;4.00;99.90;;;;;;5018675;28;20108;-91
2022/02/05 03:28:14;;;;;;;11.85;1.17;;;4.00;99.90;;;;;;5017375;28;20083;-92
2022/02/05 03:30:39;;;;;;;8.75;0.50;;;4.00;99.90;;;;;;5016469;28;20017;-91
2022/02/05 03:33:05;;;;;;;10.07;0.50;;;3.90;99.90;;;;;;5017148;28;20033;-92
2022/02/05 03:35:30;;;;;;;10.85;0.70;;;3.90;99.90;;;;;;5017536;28;20018;-90
2022/02/05 03:37:56;;;;;;;8.70;0.50;;;3.90;99.90;;;;;;5016949;28;20089;-91
2022/02/05 03:40:21;;;;;;;12.90;0.70;;;3.80;99.90;;;;;;5017313;28;20030;-91
2022/02/05 03:42:47;;;;;;;6.80;0.60;;;3.80;99.90;;;;;;5015839;28;20468;-91
2022/02/05 03:45:15;;;;;;;10.85;0.88;;;3.70;99.90;;;;;;5016354;28;20498;-89
2022/02/05 03:47:40;;;;;;;7.93;0.70;;;3.70;99.90;;;;;;5016859;28;20037;-90
2022/02/05 03:50:06;;;;;;;15.60;1.58;;;3.70;99.90;;;;;;5016712;28;20025;-90
2022/02/05 03:52:32;;;;;;;8.43;0.60;;;3.80;99.90;;;;;;5032787;28;20070;-91
2022/02/05 03:54:58;;;;;;;12.70;0.90;;;3.80;99.90;;;;;;5033787;28;20116;-91
2022/02/05 03:57:23;;;;;;;9.88;0.60;;;3.90;99.90;;;;;;5033836;28;20036;-90
2022/02/05 03:59:50;;;;;;;8.63;1.15;;;3.90;99.90;;;;;;5009330;28;20038;-91
2022/02/05 04:02:16;;;;;;;7.70;0.73;;;3.90;99.90;;;;;;4987442;28;20038;-91
2022/02/05 04:04:41;;;;;;;9.43;0.50;;;3.90;99.90;;;;;;4991956;28;20026;-91
2022/02/05 04:07:07;;;;;;;9.10;0.50;;;3.90;99.90;;;;;;4992453;28;20034;-91
2022/02/05 04:09:40;;;;;;;6.15;0.60;;;3.90;99.90;;;;;;4994559;28;20026;-91
2022/02/05 04:17:23;;;;;;;8.40;0.40;;;4.00;99.90;;;;;;4992449;28;20045;-90
2022/02/05 04:19:48;;;;;;;10.05;1.65;;;4.00;99.90;;;;;;4993947;28;20022;-91
2022/02/05 04:22:14;;;;;;;7.60;0.55;;;4.00;99.90;;;;;;4985640;28;20062;-91
2022/02/05 04:24:39;;;;;;;12.27;1.17;;;3.90;99.90;;;;;;5009199;28;20527;-91
2022/02/05 04:27:05;;;;;;;11.77;0.95;;;3.90;99.90;;;;;;4990505;28;20034;-90
2022/02/05 04:29:30;;;;;;;11.07;0.98;;;3.80;99.90;;;;;;4989680;28;20113;-91
2022/02/05 04:31:56;;;;;;;6.40;0.90;;;3.80;99.90;;;;;;4985422;28;20479;-90
2022/02/05 04:34:21;;;;;;;8.32;0.50;;;3.80;99.90;;;;;;4982415;28;20098;-90
2022/02/05 04:36:48;;;;;;;9.38;0.90;;;3.80;99.90;;;;;;4993013;28;20030;-91
2022/02/05 04:39:16;;;;;;;7.35;1.23;;;3.70;99.90;;;;;;4993746;28;20093;-91
2022/02/05 05:02:34;;;;;;;10.20;0.50;;;3.70;99.90;;;;;;5026803;28;20037;-90
2022/02/05 05:05:16;;;;;;;7.72;0.50;;;3.70;99.90;;;;;;5014401;28;20342;-91
2022/02/05 05:08:34;;;;;;;8.57;0.90;;;3.70;99.90;;;;;;5028964;28;20061;-92
2022/02/05 05:10:41;;;;;;;7.57;1.27;;;3.80;99.90;;;;;;5021324;28;20506;-91
2022/02/05 05:13:13;;;;;;;5.93;0.55;;;3.90;99.90;;;;;;5014382;28;20037;-91
2022/02/05 05:21:18;;;;;;;9.15;0.65;;;4.00;99.90;;;;;;5031030;28;20537;-92
2022/02/05 05:23:43;;;;;;;8.73;0.50;;;4.10;99.90;;;;;;5014328;28;20068;-91
2022/02/05 05:26:09;;;;;;;7.70;1.25;;;4.10;99.90;;;;;;5032865;28;20030;-92
2022/02/05 05:28:34;;;;;;;7.10;0.75;;;4.10;99.90;;;;;;5031283;28;20029;-91
2022/02/05 05:31:00;;;;;;;14.00;2.25;;;4.10;99.90;;;;;;5017728;28;20044;-90
2022/02/05 05:33:25;;;;;;;5.03;0.52;;;4.20;99.90;;;;;;5014334;28;20022;-92
2022/02/05 05:35:51;;;;;;;10.15;1.52;;;4.20;99.90;;;;;;5012209;28;20060;-90
2022/02/05 05:38:16;;;;;;;9.20;0.80;;;4.30;99.90;;;;;;5024207;28;20478;-89
2022/02/05 05:40:42;;;;;;;6.25;0.75;;;4.30;99.90;;;;;;5014857;28;20040;-90
2022/02/05 05:43:19;;;;;;;9.90;0.75;;;4.30;99.90;;;;;;5015104;28;20041;-90
2022/02/05 05:48:44;;;;;;;13.20;0.90;;;4.30;99.90;;;;;;5032885;28;20033;-91
2022/02/05 05:51:10;;;;;;;7.95;1.00;;;4.30;99.90;;;;;;5015758;28;20525;-91
2022/02/05 05:53:35;;;;;;;7.88;1.10;;;4.30;99.90;;;;;;5014115;28;20021;-91
2022/02/05 05:56:03;;;;;;;7.78;1.98;;;4.20;99.90;;;;;;5015386;28;20482;-91
2022/02/05 05:58:29;;;;;;;13.13;2.03;;;4.10;99.90;;;;;;5014262;28;20112;-91
2022/02/05 06:00:55;;;;;;;10.75;1.30;;;4.00;99.90;;;;;;4994093;28;20050;-91
2022/02/05 06:03:21;;;;;;;11.75;1.77;;;4.00;99.90;;;;;;4986005;28;20093;-91
2022/02/05 06:05:47;;;;;;;16.63;2.30;;;3.90;99.90;;;;;;4992166;28;20054;-92
2022/02/05 06:08:15;;;;;;;12.73;1.83;;;3.80;99.90;;;;;;5003987;28;20034;-91
2022/02/05 06:10:40;;;;;;;10.18;2.35;;;3.70;99.90;;;;;;4991349;28;20029;-90
2022/02/05 06:13:06;;;;;;;8.15;2.63;;;3.60;99.90;;;;;;5007167;28;20113;-91
2022/02/05 06:15:32;;;;;;;13.88;2.33;;;3.50;99.90;;;;;;4984707;28;20022;-90
2022/02/05 06:17:57;;;;;;;9.40;2.60;;;3.50;99.90;;;;;;4989894;28;20057;-92
2022/02/05 06:20:23;;;;;;;10.05;2.47;;;3.40;99.90;;;;;;4991190;28;20057;-90
2022/02/05 06:22:48;;;;;;;12.70;2.33;;;3.30;99.90;;;;;;5009766;28;20042;-90
2022/02/05 06:25:14;;;;;;;13.52;3.40;;;3.30;99.90;;;;;;5006670;28;20410;-91
2022/02/05 06:27:41;;;;;;;13.88;3.50;;;3.30;99.90;;;;;;5005437;28;20046;-91
2022/02/05 06:30:07;;;;;;;15.05;3.83;;;3.20;99.90;;;;;;4988070;28;21460;-92
2022/02/05 06:32:33;;;;;;;12.77;4.20;;;3.10;99.90;;;;;;5006864;28;20031;-92
2022/02/05 06:34:58;;;;;;;16.23;5.10;;;3.10;99.90;;;;;;4991358;28;20084;-92
2022/02/05 06:37:24;;;;;;;16.60;4.45;;;3.10;99.90;;;;;;4991663;28;20113;-90
2022/02/05 06:39:49;;;;;;;15.80;4.38;;;3.10;99.90;;;;;;5005428;28;20049;-91
2022/02/05 06:42:15;;;;;;;16.35;4.32;;;3.00;99.90;;;;;;4987721;28;20034;-91
2022/02/05 06:44:41;;;;;;;18.92;4.70;;;3.00;99.90;;;;;;4990720;28;20014;-94
2022/02/05 06:47:07;;;;;;;11.77;4.13;;;3.00;99.90;;;;;;4991123;28;20026;-91
2022/02/05 06:49:34;;;;;;;15.68;4.53;;;2.90;99.90;;;;;;4990962;28;20025;-91
2022/02/05 06:52:00;;;;;;;15.77;4.55;;;3.00;99.90;;;;;;5006426;28;20030;-90
2022/02/05 06:54:26;;;;;;;14.48;4.18;;;3.00;99.90;;;;;;5007144;28;20109;-91
2022/02/05 06:56:51;;;;;;;9.60;4.13;;;2.90;99.90;;;;;;4991058;28;20121;-92
2022/02/05 06:59:17;;;;;;;10.43;4.97;;;2.90;99.90;;;;;;5008274;28;20049;-92
2022/02/05 07:01:43;;;;;;;13.23;5.55;;;2.90;99.90;;;;;;5017570;28;20519;-92
2022/02/05 07:04:08;;;;;;;14.57;4.90;;;2.90;99.90;;;;;;5005511;28;20172;-92
2022/02/05 07:06:34;;;;;;;12.73;4.20;;;2.90;99.90;;;;;;5028803;28;20388;-92
2022/02/05 07:09:02;;;;;;;16.02;5.03;;;2.90;99.90;;;;;;5027535;28;20036;-92
2022/02/05 07:11:27;;;;;;;16.17;4.53;;;2.90;99.90;;;;;;5010764;28;20120;-92
2022/02/05 07:13:55;;;;;;;14.77;4.70;;;2.90;99.90;;;;;;5009170;28;20105;-92
2022/02/05 07:16:27;;;;;;;13.13;4.45;;;2.90;99.90;;;;;;5008535;28;20033;-91
2022/02/05 07:21:35;;;;;;;12.98;4.15;;;3.00;99.90;;;;;;5007871;28;20054;-92
2022/02/05 07:29:19;;;;;;;17.15;4.55;;;2.90;99.90;;;;;;5008294;28;20076;-92
2022/02/05 07:31:50;;;;;;;18.10;3.70;;;2.80;99.90;;;;;;5006605;28;20471;-92
2022/02/05 07:34:20;;;;;;;14.47;4.20;;;2.80;99.90;;;;;;5010214;28;20038;-91
2022/02/05 07:36:46;;;;;;;9.13;4.30;;;2.70;99.90;;;;;;5014591;28;20022;-92
2022/02/05 07:39:12;;;;;;;12.60;3.97;;;2.70;99.90;;;;;;5014058;28;20026;-90
2022/02/05 07:41:40;;;;;;;17.50;4.32;;;2.80;99.90;;;;;;5015071;28;20022;-91
2022/02/05 07:44:09;;;;;;;16.17;4.78;;;2.80;99.90;;;;;;5025904;28;20483;-92
2022/02/05 07:46:35;;;;;;;10.13;3.50;;;2.80;99.90;;;;;;5011656;28;20054;-91
2022/02/05 07:49:00;;;;;;;11.20;3.45;;;2.80;99.90;;;;;;5010297;28;20036;-91
2022/02/05 07:51:26;;;;;;;18.73;4.45;;;2.90;99.90;;;;;;4999533;28;20117;-91
2022/02/05 07:53:52;;;;;;;20.75;4.95;;;2.90;99.90;;;;;;5005533;28;20486;-92
2022/02/05 07:56:17;;;;;;;10.77;3.72;;;3.00;99.90;;;;;;5009085;28;20478;-92
2022/02/05 07:58:43;;;;;;;14.18;4.43;;;3.00;99.90;;;;;;5025603;28;20018;-92
2022/02/05 08:01:09;;;;;;;18.77;4.15;;;3.00;99.90;;;;;;5018127;28;20077;-92
2022/02/05 08:03:35;;;;;;;16.10;4.00;;;3.10;99.90;;;;;;5008165;28;20077;-91
2022/02/05 08:06:01;;;;;;;16.10;4.22;;;3.10;99.90;;;;;;5028505;28;20026;-92
2022/02/05 08:08:31;;;;;;;13.93;4.60;;;3.10;99.90;;;;;;5024483;28;20143;-92
2022/02/05 08:11:01;;;;;;;17.05;4.82;;;3.10;99.90;;;;;;5014079;28;20022;-92
2022/02/05 08:13:30;;;;;;;14.25;5.30;;;3.10;99.90;;;;;;5013050;28;20026;-90
2022/02/05 08:16:00;;;;;;;12.15;5.72;;;3.10;99.90;;;;;;5008044;28;20049;-91
2022/02/05 08:18:25;;;;;;;19.23;6.10;;;3.10;99.90;;;;;;5021870;28;20030;-91
2022/02/05 08:20:51;;;;;;;14.90;4.78;;;3.20;99.90;;;;;;5010176;28;20038;-92
2022/02/05 08:23:16;;;;;;;15.38;5.15;;;3.30;99.90;;;;;;5031236;28;20482;-91
2022/02/05 08:25:42;;;;;;;11.18;4.70;;;3.40;99.90;;;;;;5034027;28;20481;-90
2022/02/05 08:28:08;;;;;;;18.23;5.25;;;3.50;99.90;;;;;;5004472;28;20036;-90
2022/02/05 08:30:33;;;;;;;15.32;5.45;;;3.60;99.90;;;;;;5013217;28;20029;-91
2022/02/05 08:32:59;;;;;;;9.77;3.70;;;3.70;99.90;;;;;;5007004;28;20117;-90
2022/02/05 08:35:25;;;;;;;17.90;4.82;;;3.70;99.90;;;;;;5029283;28;20386;-90
2022/02/05 08:37:55;;;;;;;12.77;4.43;;;3.80;99.90;;;;;;5009636;28;20026;-91
2022/02/05 08:40:21;;;;;;;10.73;4.15;;;3.90;99.90;;;;;;5029437;28;20524;-92
2022/02/05 08:42:46;;;;;;;12.65;4.25;;;4.00;99.90;;;;;;5007142;28;20069;-92
2022/02/05 08:45:12;;;;;;;16.73;3.92;;;4.00;99.90;;;;;;5029157;28;20033;-92
2022/02/05 08:47:40;;;;;;;11.93;4.32;;;4.10;99.90;;;;;;5012579;28;20393;-92
2022/02/05 08:50:06;;;;;;;16.20;4.22;;;4.20;99.90;;;;;;5009306;28;20426;-91
2022/02/05 08:52:36;;;;;;;12.75;4.80;;;4.30;99.90;;;;;;5004919;28;20091;-92
2022/02/05 08:55:01;;;;;;;14.90;3.53;;;4.30;99.90;;;;;;5024631;28;20018;-88
2022/02/05 08:57:27;;;;;;;17.67;3.85;;;4.30;99.90;;;;;;5011381;28;20044;-91
2022/02/05 09:00:01;;;;;;;14.57;3.08;;;4.30;99.90;;;;;;5010943;28;20049;-91
2022/02/05 09:02:47;;;;;;;14.40;3.58;;;4.30;99.90;;;;;;5008572;28;20065;-92
2022/02/05 09:05:18;;;;;;;13.18;3.60;;;4.30;99.90;;;;;;5013544;28;20034;-92
2022/02/05 09:07:44;;;;;;;12.82;3.30;;;4.40;99.90;;;;;;5010174;28;20057;-92
2022/02/05 09:10:36;;;;;;;13.73;3.70;;;4.40;99.90;;;;;;5011508;28;20049;-92
2022/02/05 09:15:35;;;;;;;13.90;3.65;;;4.60;99.90;;;;;;5011045;28;20036;-92
2022/02/05 09:18:01;;;;;;;10.75;3.13;;;4.60;99.90;;;;;;5029926;28;20022;-91
2022/02/05 09:20:26;;;;;;;14.13;2.58;;;4.70;99.90;;;;;;5020815;28;20029;-91
2022/02/05 09:22:55;;;;;;;11.32;3.35;;;4.80;99.90;;;;;;5014230;28;20100;-91
2022/02/05 09:25:21;;;;;;;11.88;3.22;;;4.90;99.90;;;;;;5006236;28;20022;-92
2022/02/05 09:27:48;;;;;;;15.20;3.58;;;4.90;99.90;;;;;;5007644;28;20113;-89
2022/02/05 09:30:17;;;;;;;14.35;3.30;;;5.00;99.90;;;;;;5011945;28;20022;-89
2022/02/05 09:32:44;;;;;;;11.93;3.03;;;5.10;99.90;;;;;;5010357;28;20065;-89
2022/02/05 09:35:11;;;;;;;14.57;3.20;;;5.10;99.90;;;;;;5008617;28;20501;-89
2022/02/05 09:37:37;;;;;;;15.15;3.00;;;5.20;99.90;;;;;;5028713;28;20436;-90
2022/02/05 09:40:04;;;;;;;13.45;2.75;;;5.20;99.90;;;;;;5027643;28;20033;-90
2022/02/05 09:42:29;;;;;;;10.07;2.55;;;5.20;99.90;;;;;;5003384;28;20053;-90
2022/02/05 09:44:58;;;;;;;18.23;4.25;;;5.30;99.90;;;;;;5006064;28;20026;-89
2022/02/05 09:47:24;;;;;;;9.73;1.98;;;5.40;99.90;;;;;;5004615;28;20394;-88
2022/02/05 09:49:51;;;;;;;11.07;2.50;;;5.40;99.90;;;;;;5006080;28;20030;-89
2022/02/05 09:52:24;;;;;;;11.65;2.30;;;5.50;99.90;;;;;;5007858;28;21039;-90
2022/02/05 09:54:50;;;;;;;11.60;2.10;;;5.60;99.90;;;;;;5022020;28;20089;-89
2022/02/05 09:57:17;;;;;;;15.52;2.40;;;5.70;99.90;;;;;;5011447;28;20022;-90
2022/02/05 09:59:46;;;;;;;12.10;2.13;;;5.70;99.90;;;;;;5017781;28;20452;-89
2022/02/05 10:02:25;;;;;;;13.20;1.98;;;5.80;99.90;;;;;;5015515;28;20045;-89
2022/02/05 10:05:09;;;;;;;17.67;2.25;;;5.80;99.90;;;;;;5010962;28;20036;-88
2022/02/05 10:07:50;;;;;;;8.98;1.48;;;5.90;99.90;;;;;;5025078;28;20080;-89
2022/02/05 10:10:16;;;;;;;11.10;1.40;;;5.90;99.90;;;;;;5026095;28;20034;-89
2022/02/05 10:12:41;;;;;;;12.23;1.38;;;6.00;99.90;;;;;;5009121;28;20546;-88
2022/02/05 10:15:07;;;;;;;10.95;1.48;;;6.00;99.90;;;;;;5010585;28;20113;-87
2022/02/05 10:17:44;;;;;;;11.95;1.77;;;6.00;99.90;;;;;;5010228;28;20056;-87
2022/02/05 10:20:12;;;;;;;11.82;1.52;;;6.10;99.90;;;;;;5006864;28;20490;-88
2022/02/05 10:22:47;;;;;;;12.60;1.85;;;6.10;99.90;;;;;;5009890;28;20034;-88
2022/02/05 10:25:14;;;;;;;7.95;1.30;;;6.20;99.90;;;;;;5010107;28;20091;-89
2022/02/05 10:27:42;;;;;;;13.85;1.15;;;6.30;99.90;;;;;;5021930;28;20064;-89
2022/02/05 10:30:17;;;;;;;9.93;1.17;;;6.30;99.90;;;;;;5008676;28;20026;-89
2022/02/05 10:32:45;;;;;;;6.65;0.98;;;6.40;99.90;;;;;;5005402;28;20165;-89
2022/02/05 10:37:48;;;;;;;9.32;1.10;;;6.50;99.90;;;;;;5010156;28;20030;-90
2022/02/05 10:40:21;;;;;;;11.90;1.10;;;6.50;99.90;;;;;;5008621;28;20494;-90
2022/02/05 10:43:03;;;;;;;12.70;1.30;;;6.50;99.90;;;;;;5008225;28;20380;-88
2022/02/05 10:45:50;;;;;;;10.38;1.10;;;6.60;99.90;;;;;;5028056;28;20025;-89
2022/02/05 10:48:24;;;;;;;12.98;1.15;;;6.70;99.90;;;;;;5025400;28;20501;-89
2022/02/05 10:50:55;;;;;;;10.10;1.15;;;6.70;99.90;;;;;;5011419;28;20026;-90
2022/02/05 10:53:35;;;;;;;11.85;2.65;;;6.70;99.90;;;;;;5007044;28;20049;-87
2022/02/05 10:56:20;;;;;;;12.02;1.02;;;6.70;99.90;;;;;;5008194;28;20034;-88
2022/02/05 11:06:58;;;;;;;8.48;0.90;;;6.70;99.90;;;;;;5007575;28;20048;-87
2022/02/05 11:09:24;;;;;;;7.63;1.33;;;6.70;99.90;;;;;;5009451;28;20097;-88
2022/02/05 11:20:23;;;;;;;14.75;1.17;;;6.90;99.90;;;;;;5010996;28;20026;-87
2022/02/05 11:22:59;;;;;;;10.98;0.93;;;7.00;99.90;;;;;;4995236;28;20050;-89
2022/02/05 11:25:31;;;;;;;16.20;1.20;;;7.00;99.90;;;;;;5007815;28;20031;-88
2022/02/05 11:27:56;;;;;;;7.60;0.85;;;7.00;99.90;;;;;;5023174;28;20076;-89
2022/02/05 11:30:34;;;;;;;8.73;1.95;;;7.00;99.90;;;;;;5008858;28;20117;-88
2022/02/05 11:33:05;;;;;;;16.88;1.92;;;7.00;99.90;;;;;;5009284;28;20111;-88
2022/02/05 11:35:42;;;;;;;8.50;1.08;;;6.90;99.90;;;;;;5029017;28;20207;-88
2022/02/05 11:38:08;;;;;;;7.22;0.93;;;6.80;99.90;;;;;;5027124;28;20116;-88
2022/02/05 11:40:45;;;;;;;8.57;1.40;;;6.80;99.90;;;;;;5013846;28;20180;-88
2022/02/05 11:43:19;;;;;;;10.60;1.35;;;6.90;99.90;;;;;;5025388;28;20107;-88
2022/02/05 11:45:45;;;;;;;10.00;1.10;;;7.00;99.90;;;;;;5023364;28;20584;-88
2022/02/05 11:48:35;;;;;;;9.48;1.13;;;7.00;99.90;;;;;;5026550;28;20042;-89
2022/02/05 11:51:22;;;;;;;11.15;0.73;;;7.10;99.90;;;;;;5012440;28;21826;-89
2022/02/05 11:54:07;;;;;;;12.63;1.65;;;7.10;99.90;;;;;;5014196;28;20057;-89
2022/02/05 11:57:00;;;;;;;7.85;0.90;;;7.10;99.90;;;;;;5012259;28;20034;-88
2022/02/05 11:59:49;;;;;;;9.32;0.70;;;7.10;99.90;;;;;;5009415;28;20068;-87
2022/02/05 12:02:20;;;;;;;9.75;0.82;;;7.00;99.90;;;;;;4990161;28;20430;-89
2022/02/05 12:04:46;;;;;;;9.70;1.08;;;7.00;99.90;;;;;;5011223;28;20061;-88
2022/02/05 12:07:13;;;;;;;7.78;0.60;;;7.00;99.90;;;;;;5010480;28;20034;-89
2022/02/05 12:09:50;;;;;;;8.13;1.15;;;7.10;99.90;;;;;;5006016;28;20356;-89
2022/02/05 12:12:34;;;;;;;10.77;0.70;;;7.10;99.90;;;;;;5011094;28;20068;-88
2022/02/05 12:15:16;;;;;;;9.73;1.20;;;7.20;99.90;;;;;;5008749;28;20069;-88
2022/02/05 12:20:57;;;;;;;7.75;0.70;;;7.50;99.90;;;;;;4995870;28;20038;-89
2022/02/05 12:24:14;;;;;;;7.40;0.70;;;7.70;99.90;;;;;;4979498;28;20093;-88
2022/02/05 12:26:25;;;;;;;8.32;0.95;;;7.90;99.90;;;;;;4993395;28;20109;-89
2022/02/05 12:29:00;;;;;;;8.32;0.65;;;8.00;99.90;;;;;;4992077;28;20026;-90
2022/02/05 12:31:26;;;;;;;6.38;0.63;;;8.00;99.90;;;;;;4990820;28;20026;-88
2022/02/05 12:33:59;;;;;;;5.50;0.52;;;8.10;99.90;;;;;;5009550;28;20042;-89
2022/02/05 12:36:36;;;;;;;13.05;0.90;;;8.00;99.90;;;;;;4991155;28;20026;-89
2022/02/05 12:39:04;;;;;;;6.75;0.60;;;7.80;99.90;;;;;;4994103;28;20038;-89
2022/02/05 12:41:30;;;;;;;4.53;0.85;;;7.60;99.90;;;;;;4991774;28;20054;-89
2022/02/05 12:44:04;;;;;;;8.10;0.98;;;7.60;99.90;;;;;;5010085;28;20042;-88
2022/02/05 12:46:40;;;;;;;12.65;0.80;;;7.50;99.90;;;;;;4992923;28;20066;-89
2022/02/05 12:49:16;;;;;;;8.45;0.93;;;7.50;99.90;;;;;;4991452;28;20023;-88
2022/02/05 12:51:43;;;;;;;5.40;0.60;;;7.40;99.90;;;;;;4995009;28;20415;-90
2022/02/05 12:54:15;;;;;;;6.90;0.75;;;7.40;99.90;;;;;;4993299;28;20026;-88
2022/02/05 12:56:43;;;;;;;5.90;0.50;;;7.40;99.90;;;;;;5014348;28;20029;-90
2022/02/05 12:59:26;;;;;;;6.22;0.95;;;7.40;99.90;;;;;;5011744;28;20121;-90
2022/02/05 13:01:58;;;;;;;8.30;0.95;;;7.60;99.90;;;;;;5015422;28;20071;-89
2022/02/05 13:04:24;;;;;;;10.63;0.60;;;7.80;99.90;;;;;;5031988;28;20017;-88
2022/02/05 13:07:15;;;;;;;7.03;0.60;;;7.90;99.90;;;;;;5014570;28;20371;-89
2022/02/05 13:09:50;;;;;;;6.90;0.52;;;7.90;99.90;;;;;;5029762;28;20036;-88
2022/02/05 13:12:19;;;;;;;12.93;1.67;;;7.90;99.90;;;;;;5016237;28;20104;-87
2022/02/05 13:14:49;;;;;;;5.72;0.40;;;7.90;99.90;;;;;;5033638;28;20044;-88
2022/02/05 13:17:32;;;;;;;8.27;0.75;;;7.90;99.90;;;;;;5034477;28;20045;-89
2022/02/05 13:25:50;;;;;;;6.22;0.70;;;8.20;99.90;;;;;;5024489;28;20504;-88
2022/02/05 13:36:37;;;;;;;7.95;0.60;;;8.50;99.90;;;;;;5029241;28;20363;-89
2022/02/05 13:39:11;;;;;;;6.95;0.80;;;8.60;99.70;;;;;;5022167;28;20033;-89
2022/02/05 13:44:28;;;;;;;4.00;0.60;;;8.40;98.60;;;;;;5030696;28;20049;-89
2022/02/05 13:47:04;;;;;;;5.25;0.65;;;8.30;98.30;;;;;;5015683;28;20053;-87
2022/02/05 13:49:30;;;;;;;8.85;0.90;;;8.20;98.70;;;;;;5009591;28;20037;-87
2022/02/05 13:52:03;;;;;;;7.95;0.60;;;8.20;99.70;;;;;;5030873;28;20490;-88
2022/02/05 13:54:36;;;;;;;10.13;0.80;;;8.20;99.50;;;;;;5030716;28;20366;-89
2022/02/05 13:57:03;;;;;;;7.75;0.88;;;8.20;99.50;;;;;;5015045;28;20466;-88
2022/02/05 13:59:28;;;;;;;9.27;1.05;;;8.20;98.90;;;;;;5013362;28;20049;-89
2022/02/05 14:01:54;;;;;;;6.20;0.90;;;8.20;98.60;;;;;;5011004;28;20099;-92
2022/02/05 14:04:23;;;;;;;3.78;0.60;;;8.30;98.90;;;;;;5033116;28;20079;-88
2022/02/05 14:06:57;;;;;;;9.55;0.80;;;8.30;99.20;;;;;;5031414;28;20677;-87
2022/02/05 14:09:33;;;;;;;8.73;0.93;;;8.20;98.60;;;;;;5015670;28;20065;-88
2022/02/05 14:12:16;;;;;;;4.93;0.70;;;8.20;98.70;;;;;;5015995;28;20410;-88
2022/02/05 14:14:42;;;;;;;5.18;0.75;;;8.20;99.00;;;;;;5030838;28;20032;-88
2022/02/05 14:17:18;;;;;;;5.63;0.88;;;8.10;98.90;;;;;;5015567;28;20026;-89
2022/02/05 14:19:47;;;;;;;5.13;1.10;;;8.10;99.10;;;;;;5012565;28;20071;-89
2022/02/05 14:22:20;;;;;;;6.05;1.00;;;8.10;99.10;;;;;;5015538;28;20044;-88
2022/02/05 14:25:06;;;;;;;12.10;1.30;;;8.10;99.70;;;;;;5033194;28;20084;-88
2022/02/05 14:27:33;;;;;;;7.40;1.38;;;8.20;99.90;;;;;;5029855;28;20037;-88
2022/02/05 14:30:08;;;;;;;6.78;0.98;;;8.20;99.60;;;;;;5014094;28;20040;-89
2022/02/05 14:35:08;;;;;;;9.70;1.00;;;8.20;99.90;;;;;;5023797;28;20030;-89
2022/02/05 14:40:28;;;;;;;10.25;0.90;;;8.30;99.90;;;;;;5031027;28;20079;-90
2022/02/05 14:42:54;;;;;;;4.53;0.70;;;8.20;99.90;;;;;;5031526;28;20386;-89
2022/02/05 14:45:19;;;;;;;8.52;1.35;;;8.20;99.90;;;;;;5013021;28;20030;-89
2022/02/05 14:47:45;;;;;;;8.77;1.30;;;8.20;99.90;;;;;;5012074;28;20028;-89
2022/02/05 14:50:12;;;;;;;9.70;1.10;;;8.20;99.90;;;;;;5027807;28;20105;-88
2022/02/05 14:52:38;;;;;;;9.57;0.85;;;8.20;99.90;;;;;;5013971;28;20029;-89
2022/02/05 14:55:04;;;;;;;5.80;0.82;;;8.10;99.90;;;;;;5026397;28;20032;-88
2022/02/05 14:57:29;;;;;;;8.38;0.98;;;8.10;99.90;;;;;;5032430;28;20499;-90
2022/02/05 14:59:55;;;;;;;7.75;1.00;;;8.10;99.90;;;;;;5006438;28;20037;-88
2022/02/05 15:02:20;;;;;;;7.95;0.88;;;8.10;99.90;;;;;;5005217;28;20034;-90
2022/02/05 15:04:47;;;;;;;6.90;0.90;;;8.10;99.90;;;;;;5013395;28;20415;-91
2022/02/05 15:07:16;;;;;;;3.92;0.55;;;8.10;99.90;;;;;;5013551;28;20025;-91
2022/02/05 15:09:42;;;;;;;11.15;1.00;;;8.00;99.90;;;;;;5028081;28;20120;-89
2022/02/05 15:12:08;;;;;;;6.93;1.35;;;8.00;99.90;;;;;;5029150;28;20061;-89
2022/02/05 15:14:33;;;;;;;8.10;0.73;;;8.00;99.90;;;;;;5013017;28;20037;-89
2022/02/05 15:16:59;;;;;;;12.30;1.00;;;8.00;99.90;;;;;;5030381;28;20071;-86
2022/02/05 15:19:25;;;;;;;6.53;0.70;;;8.00;99.90;;;;;;5013472;28;20036;-86
2022/02/05 15:21:50;;;;;;;7.47;0.82;;;8.00;99.90;;;;;;5013924;28;20465;-89
2022/02/05 15:24:16;;;;;;;12.32;0.77;;;8.10;99.90;;;;;;5012983;28;20064;-90
2022/02/05 15:26:42;;;;;;;11.35;1.30;;;8.10;99.90;;;;;;5013315;28;20079;-89
2022/02/05 15:29:10;;;;;;;5.20;0.77;;;8.00;99.90;;;;;;5012612;28;20021;-91
2022/02/05 15:31:37;;;;;;;6.97;0.98;;;8.00;99.90;;;;;;5030664;28;20599;-92
2022/02/05 15:34:04;;;;;;;7.85;0.95;;;8.00;99.90;;;;;;5013321;28;20033;-89
2022/02/05 15:36:55;;;;;;;9.18;1.20;;;8.00;99.90;;;;;;5019389;28;20030;-89
2022/02/05 15:39:49;;;;;;;7.85;1.15;;;8.00;99.90;;;;;;5031016;28;20044;-89
2022/02/05 15:45:02;;;;;;;11.07;1.42;;;7.90;99.90;;;;;;5028968;28;20079;-89
2022/02/05 15:47:27;;;;;;;10.07;1.15;;;7.80;99.90;;;;;;5029192;28;20022;-89
2022/02/05 15:49:53;;;;;;;12.95;1.60;;;7.80;99.90;;;;;;5013247;28;20501;-89
2022/02/05 15:52:19;;;;;;;6.22;1.00;;;7.80;99.90;;;;;;5028407;28;20027;-88
2022/02/05 15:54:44;;;;;;;11.10;1.38;;;7.70;99.90;;;;;;5028114;28;20025;-88
2022/02/05 15:59:55;;;;;;;10.90;1.73;;;7.70;99.90;;;;;;5030185;28;20053;-88
2022/02/05 16:02:21;;;;;;;11.63;1.95;;;7.70;99.90;;;;;;5013375;28;20049;-89
2022/02/05 16:04:47;;;;;;;14.23;1.58;;;7.80;99.90;;;;;;5030258;28;20040;-90
2022/02/05 16:07:12;;;;;;;13.40;1.95;;;7.70;99.90;;;;;;5009385;28;20017;-90
2022/02/05 16:09:39;;;;;;;11.40;2.38;;;7.70;99.90;;;;;;5014673;28;20112;-90